sensor_id;sensor_type;location;lat;lon;timestamp;temperature;humidity
75262;DHT22;63859;51.064;4.580;2023-04-01T00:02:07;9.80;99.90
75262;DHT22;63859;51.064;4.580;2023-04-01T00:04:33;9.80;99.90
75262;DHT22;63859;51.064;4.580;2023-04-01T00:06:59;9.80;99.90
75262;DHT22;63859;51.064;4.580;2023-04-01T00:09:25;9.80;99.90
75262;DHT22;63859;51.064;4.580;2023-04-01T00:11:51;9.80;99.90
75262;DHT22;63859;51.064;4.580;2023-04-01T00:14:17;9.80;99.90
75262;DHT22;63859;51.064;4.580;2023-04-01T00:16:42;9.70;99.90
75262;DHT22;63859;51.064;4.580;2023-04-01T00:19:08;9.70;99.90
75262;DHT22;63859;51.064;4.580;2023-04-01T00:21:34;9.70;99.90
75262;DHT22;63859;51.064;4.580;2023-04-01T00:24:00;9.70;99.90
75262;DHT22;63859;51.064;4.580;2023-04-01T00:26:26;9.70;99.90
75262;DHT22;63859;51.064;4.580;2023-04-01T00:28:51;9.70;99.90
75262;DHT22;63859;51.064;4.580;2023-04-01T00:31:17;9.70;99.90
75262;DHT22;63859;51.064;4.580;2023-04-01T00:33:43;9.70;99.90
75262;DHT22;63859;51.064;4.580;2023-04-01T00:36:14;9.70;99.90
75262;DHT22;63859;51.064;4.580;2023-04-01T00:38:40;9.70;99.90
75262;DHT22;63859;51.064;4.580;2023-04-01T00:41:09;9.80;99.90
75262;DHT22;63859;51.064;4.580;2023-04-01T00:43:36;9.70;99.90
75262;DHT22;63859;51.064;4.580;2023-04-01T00:46:01;9.70;99.90
75262;DHT22;63859;51.064;4.580;2023-04-01T00:48:33;9.70;99.90
75262;DHT22;63859;51.064;4.580;2023-04-01T00:51:07;9.70;99.90
75262;DHT22;63859;51.064;4.580;2023-04-01T00:53:38;9.70;99.90
75262;DHT22;63859;51.064;4.580;2023-04-01T00:56:12;9.70;99.90
75262;DHT22;63859;51.064;4.580;2023-04-01T00:58:43;9.70;99.90
75262;DHT22;63859;51.064;4.580;2023-04-01T01:01:11;9.70;99.90
75262;DHT22;63859;51.064;4.580;2023-04-01T01:03:37;9.70;99.90
75262;DHT22;63859;51.064;4.580;2023-04-01T01:11:58;9.70;99.90
75262;DHT22;63859;51.064;4.580;2023-04-01T01:14:49;9.70;99.90
75262;DHT22;63859;51.064;4.580;2023-04-01T01:20:18;9.70;99.90
75262;DHT22;63859;51.064;4.580;2023-04-01T01:23:36;9.70;99.90
75262;DHT22;63859;51.064;4.580;2023-04-01T01:25:54;9.70;99.90
75262;DHT22;63859;51.064;4.580;2023-04-01T01:31:23;9.70;99.90
75262;DHT22;63859;51.064;4.580;2023-04-01T01:36:38;9.70;99.90
75262;DHT22;63859;51.064;4.580;2023-04-01T01:39:07;9.70;99.90
75262;DHT22;63859;51.064;4.580;2023-04-01T01:41:35;9.70;99.90
75262;DHT22;63859;51.064;4.580;2023-04-01T01:44:04;9.70;99.90
75262;DHT22;63859;51.064;4.580;2023-04-01T01:46:31;9.60;99.90
75262;DHT22;63859;51.064;4.580;2023-04-01T01:48:59;9.60;99.90
75262;DHT22;63859;51.064;4.580;2023-04-01T01:51:27;9.60;99.90
75262;DHT22;63859;51.064;4.580;2023-04-01T01:53:53;9.60;99.90
75262;DHT22;63859;51.064;4.580;2023-04-01T01:56:22;9.60;99.90
75262;DHT22;63859;51.064;4.580;2023-04-01T01:58:52;9.70;99.90
75262;DHT22;63859;51.064;4.580;2023-04-01T02:01:24;9.60;99.90
75262;DHT22;63859;51.064;4.580;2023-04-01T02:03:51;9.60;99.90
75262;DHT22;63859;51.064;4.580;2023-04-01T02:06:21;9.60;99.90
75262;DHT22;63859;51.064;4.580;2023-04-01T02:09:00;9.50;99.90
75262;DHT22;63859;51.064;4.580;2023-04-01T02:11:46;9.50;99.90
75262;DHT22;63859;51.064;4.580;2023-04-01T02:14:18;9.60;99.90
75262;DHT22;63859;51.064;4.580;2023-04-01T02:16:51;9.60;99.90
75262;DHT22;63859;51.064;4.580;2023-04-01T02:19:20;9.50;99.90
75262;DHT22;63859;51.064;4.580;2023-04-01T02:21:52;9.50;99.90
75262;DHT22;63859;51.064;4.580;2023-04-01T02:24:20;9.50;99.90
75262;DHT22;63859;51.064;4.580;2023-04-01T02:26:50;9.50;99.90
75262;DHT22;63859;51.064;4.580;2023-04-01T02:29:19;9.50;99.90
75262;DHT22;63859;51.064;4.580;2023-04-01T02:31:46;9.50;99.90
75262;DHT22;63859;51.064;4.580;2023-04-01T02:34:17;9.40;99.90
75262;DHT22;63859;51.064;4.580;2023-04-01T02:36:43;9.40;99.90
75262;DHT22;63859;51.064;4.580;2023-04-01T02:39:09;9.40;99.90
75262;DHT22;63859;51.064;4.580;2023-04-01T02:41:42;9.40;99.90
75262;DHT22;63859;51.064;4.580;2023-04-01T02:44:09;9.40;99.90
75262;DHT22;63859;51.064;4.580;2023-04-01T02:46:35;9.40;99.90
75262;DHT22;63859;51.064;4.580;2023-04-01T02:49:01;9.30;99.90
75262;DHT22;63859;51.064;4.580;2023-04-01T02:51:27;9.40;99.90
75262;DHT22;63859;51.064;4.580;2023-04-01T02:53:53;9.30;99.90
75262;DHT22;63859;51.064;4.580;2023-04-01T02:56:18;9.30;99.90
75262;DHT22;63859;51.064;4.580;2023-04-01T02:58:45;9.30;99.90
75262;DHT22;63859;51.064;4.580;2023-04-01T03:01:11;9.30;99.90
75262;DHT22;63859;51.064;4.580;2023-04-01T03:03:37;9.20;99.90
75262;DHT22;63859;51.064;4.580;2023-04-01T03:06:07;9.30;99.90
75262;DHT22;63859;51.064;4.580;2023-04-01T03:08:33;9.30;99.90
75262;DHT22;63859;51.064;4.580;2023-04-01T03:10:59;9.20;99.90
75262;DHT22;63859;51.064;4.580;2023-04-01T03:13:24;9.10;99.90
75262;DHT22;63859;51.064;4.580;2023-04-01T03:15:51;9.20;99.90
75262;DHT22;63859;51.064;4.580;2023-04-01T03:18:16;9.20;99.90
75262;DHT22;63859;51.064;4.580;2023-04-01T03:20:42;9.30;99.90
75262;DHT22;63859;51.064;4.580;2023-04-01T03:23:08;9.20;99.90
75262;DHT22;63859;51.064;4.580;2023-04-01T03:25:34;9.10;99.90
75262;DHT22;63859;51.064;4.580;2023-04-01T03:27:59;9.20;99.90
75262;DHT22;63859;51.064;4.580;2023-04-01T03:30:26;9.30;99.90
75262;DHT22;63859;51.064;4.580;2023-04-01T03:32:52;9.20;99.90
75262;DHT22;63859;51.064;4.580;2023-04-01T03:35:18;9.20;99.90
75262;DHT22;63859;51.064;4.580;2023-04-01T03:37:43;9.20;99.90
75262;DHT22;63859;51.064;4.580;2023-04-01T03:40:10;9.20;99.90
75262;DHT22;63859;51.064;4.580;2023-04-01T03:42:35;9.20;99.90
75262;DHT22;63859;51.064;4.580;2023-04-01T03:45:02;9.20;99.90
75262;DHT22;63859;51.064;4.580;2023-04-01T03:47:28;9.20;99.90
75262;DHT22;63859;51.064;4.580;2023-04-01T03:49:54;9.20;99.90
75262;DHT22;63859;51.064;4.580;2023-04-01T03:52:19;9.10;99.90
75262;DHT22;63859;51.064;4.580;2023-04-01T03:54:45;9.10;99.90
75262;DHT22;63859;51.064;4.580;2023-04-01T03:57:11;9.10;99.90
75262;DHT22;63859;51.064;4.580;2023-04-01T03:59:36;9.20;99.90
75262;DHT22;63859;51.064;4.580;2023-04-01T04:02:02;9.10;99.90
75262;DHT22;63859;51.064;4.580;2023-04-01T04:04:28;9.10;99.90
75262;DHT22;63859;51.064;4.580;2023-04-01T04:06:54;9.10;99.90
75262;DHT22;63859;51.064;4.580;2023-04-01T04:09:20;9.10;99.90
75262;DHT22;63859;51.064;4.580;2023-04-01T04:11:46;9.10;99.90
75262;DHT22;63859;51.064;4.580;2023-04-01T04:14:11;9.10;99.90
75262;DHT22;63859;51.064;4.580;2023-04-01T04:16:37;9.10;99.90
75262;DHT22;63859;51.064;4.580;2023-04-01T04:19:03;9.10;99.90
75262;DHT22;63859;51.064;4.580;2023-04-01T04:21:29;9.10;99.90
75262;DHT22;63859;51.064;4.580;2023-04-01T04:23:54;9.30;99.90
75262;DHT22;63859;51.064;4.580;2023-04-01T04:26:20;9.10;99.90
75262;DHT22;63859;51.064;4.580;2023-04-01T04:28:46;9.10;99.90
75262;DHT22;63859;51.064;4.580;2023-04-01T04:31:11;9.10;99.90
75262;DHT22;63859;51.064;4.580;2023-04-01T04:33:37;9.10;99.90
75262;DHT22;63859;51.064;4.580;2023-04-01T04:36:03;9.10;99.90
75262;DHT22;63859;51.064;4.580;2023-04-01T04:38:29;9.10;99.90
75262;DHT22;63859;51.064;4.580;2023-04-01T04:40:55;9.10;99.90
75262;DHT22;63859;51.064;4.580;2023-04-01T04:43:21;9.20;99.90
75262;DHT22;63859;51.064;4.580;2023-04-01T04:45:47;9.10;99.90
75262;DHT22;63859;51.064;4.580;2023-04-01T04:48:14;9.10;99.90
75262;DHT22;63859;51.064;4.580;2023-04-01T04:50:47;9.10;99.90
75262;DHT22;63859;51.064;4.580;2023-04-01T04:53:15;9.10;99.90
75262;DHT22;63859;51.064;4.580;2023-04-01T04:55:49;9.10;99.90
75262;DHT22;63859;51.064;4.580;2023-04-01T04:58:15;9.20;99.90
75262;DHT22;63859;51.064;4.580;2023-04-01T05:00:41;9.10;99.90
75262;DHT22;63859;51.064;4.580;2023-04-01T05:03:07;9.20;99.90
75262;DHT22;63859;51.064;4.580;2023-04-01T05:05:33;9.20;99.90
75262;DHT22;63859;51.064;4.580;2023-04-01T05:07:58;9.10;99.90
75262;DHT22;63859;51.064;4.580;2023-04-01T05:10:24;9.10;99.90
75262;DHT22;63859;51.064;4.580;2023-04-01T05:12:50;9.20;99.90
75262;DHT22;63859;51.064;4.580;2023-04-01T05:15:16;9.20;99.90
75262;DHT22;63859;51.064;4.580;2023-04-01T05:17:41;9.20;99.90
75262;DHT22;63859;51.064;4.580;2023-04-01T05:20:07;9.10;99.90
75262;DHT22;63859;51.064;4.580;2023-04-01T05:22:33;9.10;99.90
75262;DHT22;63859;51.064;4.580;2023-04-01T05:24:59;9.10;99.90
75262;DHT22;63859;51.064;4.580;2023-04-01T05:27:24;9.10;99.90
75262;DHT22;63859;51.064;4.580;2023-04-01T05:29:50;9.10;99.90
75262;DHT22;63859;51.064;4.580;2023-04-01T05:32:16;9.10;99.90
75262;DHT22;63859;51.064;4.580;2023-04-01T05:34:41;9.30;99.90
75262;DHT22;63859;51.064;4.580;2023-04-01T05:37:07;9.10;99.90
75262;DHT22;63859;51.064;4.580;2023-04-01T05:39:37;9.10;99.90
75262;DHT22;63859;51.064;4.580;2023-04-01T05:42:05;9.10;99.90
75262;DHT22;63859;51.064;4.580;2023-04-01T05:44:31;9.20;99.90
75262;DHT22;63859;51.064;4.580;2023-04-01T05:46:57;8.90;99.90
75262;DHT22;63859;51.064;4.580;2023-04-01T05:49:23;9.00;99.90
75262;DHT22;63859;51.064;4.580;2023-04-01T05:51:48;9.00;99.90
75262;DHT22;63859;51.064;4.580;2023-04-01T05:54:14;8.90;99.90
75262;DHT22;63859;51.064;4.580;2023-04-01T05:56:39;9.00;99.90
75262;DHT22;63859;51.064;4.580;2023-04-01T05:59:05;9.00;99.90
75262;DHT22;63859;51.064;4.580;2023-04-01T06:01:31;9.00;99.90
75262;DHT22;63859;51.064;4.580;2023-04-01T06:03:56;9.00;99.90
75262;DHT22;63859;51.064;4.580;2023-04-01T06:06:30;9.00;99.90
75262;DHT22;63859;51.064;4.580;2023-04-01T06:09:00;9.00;99.90
75262;DHT22;63859;51.064;4.580;2023-04-01T06:11:37;9.00;99.90
75262;DHT22;63859;51.064;4.580;2023-04-01T06:19:58;9.00;99.90
75262;DHT22;63859;51.064;4.580;2023-04-01T06:22:44;9.00;99.90
75262;DHT22;63859;51.064;4.580;2023-04-01T06:37:20;9.00;99.90
75262;DHT22;63859;51.064;4.580;2023-04-01T06:48:07;8.90;99.90
75262;DHT22;63859;51.064;4.580;2023-04-01T06:55:59;8.90;99.90
75262;DHT22;63859;51.064;4.580;2023-04-01T06:59:13;8.90;99.90
75262;DHT22;63859;51.064;4.580;2023-04-01T07:01:25;8.90;99.90
75262;DHT22;63859;51.064;4.580;2023-04-01T07:04:01;8.90;99.90
75262;DHT22;63859;51.064;4.580;2023-04-01T07:06:35;9.00;99.90
75262;DHT22;63859;51.064;4.580;2023-04-01T07:09:06;8.90;99.90
75262;DHT22;63859;51.064;4.580;2023-04-01T07:11:35;8.90;99.90
75262;DHT22;63859;51.064;4.580;2023-04-01T07:14:17;8.90;99.90
75262;DHT22;63859;51.064;4.580;2023-04-01T07:17:23;8.90;99.90
75262;DHT22;63859;51.064;4.580;2023-04-01T07:19:58;8.90;99.90
75262;DHT22;63859;51.064;4.580;2023-04-01T07:22:32;8.90;99.90
75262;DHT22;63859;51.064;4.580;2023-04-01T07:25:05;8.90;99.90
75262;DHT22;63859;51.064;4.580;2023-04-01T07:27:31;8.90;99.90
75262;DHT22;63859;51.064;4.580;2023-04-01T07:29:57;8.90;99.90
75262;DHT22;63859;51.064;4.580;2023-04-01T07:40:36;9.00;99.90
75262;DHT22;63859;51.064;4.580;2023-04-01T07:54:23;9.00;99.90
75262;DHT22;63859;51.064;4.580;2023-04-01T07:57:12;9.00;99.90
75262;DHT22;63859;51.064;4.580;2023-04-01T08:02:59;9.00;99.90
75262;DHT22;63859;51.064;4.580;2023-04-01T08:08:40;9.10;99.90
75262;DHT22;63859;51.064;4.580;2023-04-01T08:13:46;9.00;99.90
75262;DHT22;63859;51.064;4.580;2023-04-01T08:16:18;9.10;99.90
75262;DHT22;63859;51.064;4.580;2023-04-01T08:21:54;9.10;99.90
75262;DHT22;63859;51.064;4.580;2023-04-01T08:24:48;9.10;99.90
75262;DHT22;63859;51.064;4.580;2023-04-01T08:27:35;9.10;99.90
75262;DHT22;63859;51.064;4.580;2023-04-01T08:30:21;9.10;99.90
75262;DHT22;63859;51.064;4.580;2023-04-01T08:35:38;9.10;99.90
75262;DHT22;63859;51.064;4.580;2023-04-01T08:38:14;9.10;99.90
75262;DHT22;63859;51.064;4.580;2023-04-01T08:43:55;9.10;99.90
75262;DHT22;63859;51.064;4.580;2023-04-01T08:55:22;9.20;99.90
75262;DHT22;63859;51.064;4.580;2023-04-01T08:58:42;9.20;99.90
75262;DHT22;63859;51.064;4.580;2023-04-01T09:04:14;9.30;99.90
75262;DHT22;63859;51.064;4.580;2023-04-01T09:07:09;9.30;99.90
75262;DHT22;63859;51.064;4.580;2023-04-01T09:12:44;9.30;99.90
75262;DHT22;63859;51.064;4.580;2023-04-01T09:15:29;9.30;99.90
75262;DHT22;63859;51.064;4.580;2023-04-01T09:29:04;9.40;99.90
75262;DHT22;63859;51.064;4.580;2023-04-01T09:31:45;9.40;99.90
75262;DHT22;63859;51.064;4.580;2023-04-01T09:38:22;9.40;99.90
75262;DHT22;63859;51.064;4.580;2023-04-01T09:46:45;9.60;99.90
75262;DHT22;63859;51.064;4.580;2023-04-01T09:57:46;9.70;99.90
75262;DHT22;63859;51.064;4.580;2023-04-01T10:14:31;9.90;99.90
75262;DHT22;63859;51.064;4.580;2023-04-01T10:28:42;9.90;99.90
75262;DHT22;63859;51.064;4.580;2023-04-01T10:36:43;9.90;99.90
75262;DHT22;63859;51.064;4.580;2023-04-01T10:39:38;9.80;99.90
75262;DHT22;63859;51.064;4.580;2023-04-01T10:42:48;9.80;99.90
75262;DHT22;63859;51.064;4.580;2023-04-01T11:15:21;9.90;99.90
75262;DHT22;63859;51.064;4.580;2023-04-01T11:20:55;9.80;99.90
75262;DHT22;63859;51.064;4.580;2023-04-01T11:23:43;9.70;99.90
75262;DHT22;63859;51.064;4.580;2023-04-01T11:27:16;9.80;99.90
75262;DHT22;63859;51.064;4.580;2023-04-01T11:29:31;9.80;99.90
75262;DHT22;63859;51.064;4.580;2023-04-01T11:43:03;9.80;99.90
75262;DHT22;63859;51.064;4.580;2023-04-01T11:45:36;9.80;99.90
75262;DHT22;63859;51.064;4.580;2023-04-01T11:48:28;9.80;99.90
75262;DHT22;63859;51.064;4.580;2023-04-01T12:00:30;9.70;99.90
75262;DHT22;63859;51.064;4.580;2023-04-01T12:15:29;9.70;99.90
75262;DHT22;63859;51.064;4.580;2023-04-01T12:23:06;9.50;99.90
75262;DHT22;63859;51.064;4.580;2023-04-01T12:31:12;9.70;99.90
75262;DHT22;63859;51.064;4.580;2023-04-01T12:36:30;10.00;99.90
75262;DHT22;63859;51.064;4.580;2023-04-01T12:39:37;10.10;99.90
75262;DHT22;63859;51.064;4.580;2023-04-01T12:45:29;10.10;99.90
75262;DHT22;63859;51.064;4.580;2023-04-01T12:59:43;10.00;99.90
75262;DHT22;63859;51.064;4.580;2023-04-01T13:21:47;10.00;99.90
75262;DHT22;63859;51.064;4.580;2023-04-01T13:24:37;10.00;99.90
75262;DHT22;63859;51.064;4.580;2023-04-01T13:27:30;10.00;99.90
75262;DHT22;63859;51.064;4.580;2023-04-01T13:35:29;10.00;99.90
75262;DHT22;63859;51.064;4.580;2023-04-01T13:43:35;9.90;99.90
75262;DHT22;63859;51.064;4.580;2023-04-01T13:51:33;9.90;99.90
75262;DHT22;63859;51.064;4.580;2023-04-01T14:00:05;9.90;99.90
75262;DHT22;63859;51.064;4.580;2023-04-01T14:02:51;9.90;99.90
75262;DHT22;63859;51.064;4.580;2023-04-01T14:08:26;9.90;99.90
75262;DHT22;63859;51.064;4.580;2023-04-01T14:10:58;9.90;99.90
75262;DHT22;63859;51.064;4.580;2023-04-01T14:27:52;10.10;99.90
75262;DHT22;63859;51.064;4.580;2023-04-01T14:41:04;10.40;99.90
75262;DHT22;63859;51.064;4.580;2023-04-01T14:51:16;10.30;99.90
75262;DHT22;63859;51.064;4.580;2023-04-01T14:54:12;10.40;99.90
75262;DHT22;63859;51.064;4.580;2023-04-01T14:56:44;10.30;99.90
75262;DHT22;63859;51.064;4.580;2023-04-01T15:05:10;10.30;99.90
75262;DHT22;63859;51.064;4.580;2023-04-01T15:16:19;10.20;99.90
75262;DHT22;63859;51.064;4.580;2023-04-01T15:18:59;10.20;99.90
75262;DHT22;63859;51.064;4.580;2023-04-01T15:27:34;10.20;99.90
75262;DHT22;63859;51.064;4.580;2023-04-01T15:38:42;10.00;99.90
75262;DHT22;63859;51.064;4.580;2023-04-01T15:44:24;9.90;99.90
75262;DHT22;63859;51.064;4.580;2023-04-01T15:46:50;9.90;99.90
75262;DHT22;63859;51.064;4.580;2023-04-01T15:49:27;9.70;99.90
75262;DHT22;63859;51.064;4.580;2023-04-01T16:05:20;9.60;99.90
75262;DHT22;63859;51.064;4.580;2023-04-01T16:08:37;9.60;99.90
75262;DHT22;63859;51.064;4.580;2023-04-01T16:14:31;9.60;99.90
75262;DHT22;63859;51.064;4.580;2023-04-01T16:22:49;9.40;99.90
75262;DHT22;63859;51.064;4.580;2023-04-01T16:28:15;9.30;99.90
75262;DHT22;63859;51.064;4.580;2023-04-01T16:30:55;9.30;99.90
75262;DHT22;63859;51.064;4.580;2023-04-01T16:33:51;9.30;99.90
75262;DHT22;63859;51.064;4.580;2023-04-01T16:42:13;9.30;99.90
75262;DHT22;63859;51.064;4.580;2023-04-01T16:45:15;9.30;99.90
75262;DHT22;63859;51.064;4.580;2023-04-01T16:47:49;9.20;99.90
75262;DHT22;63859;51.064;4.580;2023-04-01T16:50:22;9.20;99.90
75262;DHT22;63859;51.064;4.580;2023-04-01T16:55:50;9.20;99.90
75262;DHT22;63859;51.064;4.580;2023-04-01T16:58:23;9.20;99.90
75262;DHT22;63859;51.064;4.580;2023-04-01T17:00:53;9.20;99.90
75262;DHT22;63859;51.064;4.580;2023-04-01T17:03:36;9.20;99.90
75262;DHT22;63859;51.064;4.580;2023-04-01T17:06:07;9.10;99.90
75262;DHT22;63859;51.064;4.580;2023-04-01T17:11:31;9.20;99.90
75262;DHT22;63859;51.064;4.580;2023-04-01T17:17:19;9.20;99.90
75262;DHT22;63859;51.064;4.580;2023-04-01T17:20:12;9.20;99.90
75262;DHT22;63859;51.064;4.580;2023-04-01T17:34:03;9.10;99.90
75262;DHT22;63859;51.064;4.580;2023-04-01T17:40:04;9.20;99.90
75262;DHT22;63859;51.064;4.580;2023-04-01T17:42:39;9.20;99.90
75262;DHT22;63859;51.064;4.580;2023-04-01T17:53:44;9.20;99.90
75262;DHT22;63859;51.064;4.580;2023-04-01T17:59:02;9.20;99.90
75262;DHT22;63859;51.064;4.580;2023-04-01T18:01:42;9.20;99.90
75262;DHT22;63859;51.064;4.580;2023-04-01T18:07:07;9.20;99.90
75262;DHT22;63859;51.064;4.580;2023-04-01T18:09:49;9.20;99.90
75262;DHT22;63859;51.064;4.580;2023-04-01T18:18:19;9.20;99.90
75262;DHT22;63859;51.064;4.580;2023-04-01T18:23:54;9.20;99.90
75262;DHT22;63859;51.064;4.580;2023-04-01T18:26:35;9.20;99.90
75262;DHT22;63859;51.064;4.580;2023-04-01T18:29:39;9.20;99.90
75262;DHT22;63859;51.064;4.580;2023-04-01T18:32:22;9.20;99.90
75262;DHT22;63859;51.064;4.580;2023-04-01T18:37:44;9.10;99.90
75262;DHT22;63859;51.064;4.580;2023-04-01T18:43:31;9.00;99.90
75262;DHT22;63859;51.064;4.580;2023-04-01T18:51:43;9.00;99.90
75262;DHT22;63859;51.064;4.580;2023-04-01T18:56:42;9.00;99.90
75262;DHT22;63859;51.064;4.580;2023-04-01T19:06:51;9.00;99.90
75262;DHT22;63859;51.064;4.580;2023-04-01T19:09:43;9.00;99.90
75262;DHT22;63859;51.064;4.580;2023-04-01T19:15:07;9.00;99.90
75262;DHT22;63859;51.064;4.580;2023-04-01T19:20:18;9.00;99.90
75262;DHT22;63859;51.064;4.580;2023-04-01T19:26:00;9.00;99.90
75262;DHT22;63859;51.064;4.580;2023-04-01T19:28:49;9.00;99.90
75262;DHT22;63859;51.064;4.580;2023-04-01T19:37:25;9.00;99.90
75262;DHT22;63859;51.064;4.580;2023-04-01T19:46:04;9.00;99.90
75262;DHT22;63859;51.064;4.580;2023-04-01T19:48:49;9.00;99.90
75262;DHT22;63859;51.064;4.580;2023-04-01T20:07:13;9.10;99.90
75262;DHT22;63859;51.064;4.580;2023-04-01T20:09:54;9.10;99.90
75262;DHT22;63859;51.064;4.580;2023-04-01T20:18:25;9.20;99.90
75262;DHT22;63859;51.064;4.580;2023-04-01T20:20:59;9.20;99.90
75262;DHT22;63859;51.064;4.580;2023-04-01T20:23:34;9.30;99.90
75262;DHT22;63859;51.064;4.580;2023-04-01T20:26:09;9.30;99.90
75262;DHT22;63859;51.064;4.580;2023-04-01T20:31:33;9.30;99.90
75262;DHT22;63859;51.064;4.580;2023-04-01T20:41:53;9.40;99.90
75262;DHT22;63859;51.064;4.580;2023-04-01T20:50:37;9.40;99.90
75262;DHT22;63859;51.064;4.580;2023-04-01T20:58:52;9.40;99.90
75262;DHT22;63859;51.064;4.580;2023-04-01T21:07:20;9.40;99.90
75262;DHT22;63859;51.064;4.580;2023-04-01T21:26:56;9.30;99.90
75262;DHT22;63859;51.064;4.580;2023-04-01T21:49:24;9.40;99.90
75262;DHT22;63859;51.064;4.580;2023-04-01T21:52:29;9.30;99.90
75262;DHT22;63859;51.064;4.580;2023-04-01T21:55:03;9.40;99.90
75262;DHT22;63859;51.064;4.580;2023-04-01T22:00:42;9.30;99.90
75262;DHT22;63859;51.064;4.580;2023-04-01T22:06:26;9.30;99.90
75262;DHT22;63859;51.064;4.580;2023-04-01T22:09:09;9.30;99.90
75262;DHT22;63859;51.064;4.580;2023-04-01T22:11:44;9.20;99.90
75262;DHT22;63859;51.064;4.580;2023-04-01T22:19:57;9.20;99.90
75262;DHT22;63859;51.064;4.580;2023-04-01T22:22:49;9.20;99.90
75262;DHT22;63859;51.064;4.580;2023-04-01T22:25:42;9.20;99.90
75262;DHT22;63859;51.064;4.580;2023-04-01T22:28:37;9.20;99.90
75262;DHT22;63859;51.064;4.580;2023-04-01T22:31:06;9.20;99.90
75262;DHT22;63859;51.064;4.580;2023-04-01T22:36:28;9.20;99.90
75262;DHT22;63859;51.064;4.580;2023-04-01T22:39:14;9.10;99.90
75262;DHT22;63859;51.064;4.580;2023-04-01T22:45:21;9.10;99.90
75262;DHT22;63859;51.064;4.580;2023-04-01T22:47:40;9.10;99.90
75262;DHT22;63859;51.064;4.580;2023-04-01T22:50:24;9.10;99.90
75262;DHT22;63859;51.064;4.580;2023-04-01T22:55:34;9.10;99.90
75262;DHT22;63859;51.064;4.580;2023-04-01T22:58:14;9.10;99.90
75262;DHT22;63859;51.064;4.580;2023-04-01T23:00:52;9.00;99.90
75262;DHT22;63859;51.064;4.580;2023-04-01T23:03:22;9.00;99.90
75262;DHT22;63859;51.064;4.580;2023-04-01T23:06:02;9.00;99.90
75262;DHT22;63859;51.064;4.580;2023-04-01T23:17:25;8.90;99.90
75262;DHT22;63859;51.064;4.580;2023-04-01T23:33:26;8.90;99.90
75262;DHT22;63859;51.064;4.580;2023-04-01T23:36:00;8.90;99.90
75262;DHT22;63859;51.064;4.580;2023-04-01T23:38:38;8.80;99.90
75262;DHT22;63859;51.064;4.580;2023-04-01T23:41:08;8.80;99.90
75262;DHT22;63859;51.064;4.580;2023-04-01T23:43:37;8.80;99.90
75262;DHT22;63859;51.064;4.580;2023-04-01T23:46:05;8.80;99.90
75262;DHT22;63859;51.064;4.580;2023-04-01T23:51:01;8.80;99.90
75262;DHT22;63859;51.064;4.580;2023-04-01T23:53:31;8.80;99.90
75262;DHT22;63859;51.064;4.580;2023-04-01T23:55:58;8.70;99.90
75262;DHT22;63859;51.064;4.580;2023-04-01T23:58:25;8.70;99.90
